默认 日期 大小 文件数 浏览量 最新下载 xml
05 31磁力链接相关资源由用户搜索指令自动获取,结果来源于网络,本站不存储任何资料,亦不承担任何责任,请于24小时内删除,搜索到8478个磁力,显示前4000条数据,用时19ms。
    ... .org.txt": 86, "ztod.19.05.31.bridgette.b.stacked.blonde.fucked ... .stud.mp4": 964891057, "ztod.19.05.31.bridgette.b.stacked.blonde.fucked ...
创建时间: 2019-06-10 16:50:11 大小:937.01 MB 文件数量:13 热度:7 最近下载:2024-10-20 21:23:02
    {"Sample": {"gw.19.05.31.cadence.lux.and.addison.lee.real.estate.rumble-sample.mp4": 41049604}, "[XvX]endorsed by torrentgalaxy.org .nfo": 691, "gw.19.05.31.cadence.lux.and.addison.lee.real.estate.rumble.mp4": 1574897227}
创建时间: 2019-06-10 17:40:09 大小:1.5 GB 文件数量:3 热度:10 最近下载:2025-04-05 00:03:02
    {"abp-854.jpg": 751291, "BAHP-001.jpg": 618726, "cjod-182.jpg": 176246, "honb-126.jpg": 188279, "jufe-047.jpg": 206169, "pppd-757.jpg": 179471, "shkd-852.jpg": 183178, "ssni-470.jpg": 170441, "wanz-855.jpg": 217592, "ABP854_ch.mp4": 1653002154, "mxgs-1094. ...
创建时间: 2019-06-10 19:59:48 大小:11.15 GB 文件数量:47 热度:42 最近下载:2025-08-01 12:03:07
    {"Sample": {"tushy.19.05.31.gabbie.carter-sample.mp4": 80002783}, "tushy.19.05.31.gabbie.carter.mp4": 3356703753, "[XvX]endorsed by torrentgalaxy.org .nfo": 691}
创建时间: 2019-06-10 21:12:24 大小:3.2 GB 文件数量:3 热度:47 最近下载:2025-08-30 02:54:01
    {"RARBG.txt": 30, "file_id.diz": 698, "ma951glqd.nfo": 8689, "RARBG_DO_NOT_MIRROR.exe": 99, "RARBG.COM_XXX_BANNER.jpg": 517081, "model-bio_Gloria-Loren.txt": 353, "_metart-quick-dip-cover.jpg": 148499, "metart-quick-dip-cover-clean.jpg": 130158, " ...
创建时间: 2019-06-10 21:18:33 大小:316.92 MB 文件数量:121 热度:15 最近下载:2023-11-03 22:05:19
    {"Sample": {"roundandbrown.19.05.31.evi.rei.get.caught.in.her.net-sample.mp4": 84641622}, "[XvX]endorsed by torrentgalaxy.org .nfo": 691, "roundandbrown.19.05.31.evi.rei.get.caught.in.her.net.mp4": 3185473868}
创建时间: 2019-06-10 23:25:30 大小:3.05 GB 文件数量:3 热度:10 最近下载:2025-07-26 18:44:02
    {"RARBG.txt": 30, "RARBG_DO_NOT_MIRROR.exe": 99, "ShotHerFirst.19.05.31.Lulu.Chu.XXX.SD.MP4-KLEENEX.mp4": 357758165}
创建时间: 2019-06-11 00:54:19 大小:341.18 MB 文件数量:3 热度:42 最近下载:2025-04-21 19:46:03
    {"bex.19.05.31.brooklyn.chase.hosed.up.hos.down.mp4": 227715224}
创建时间: 2019-06-11 00:55:10 大小:217.17 MB 文件数量:1 热度:19 最近下载:2025-06-24 10:37:01
    {"rodneymoore.19.05.31.arabelle.raphael.big.tits.and.tattoos[N1C].mp4": 1856898355}
创建时间: 2019-06-11 00:58:59 大小:1.73 GB 文件数量:1 热度:11 最近下载:2025-05-09 16:41:01
    {"RARBG.txt": 30, "RARBG_DO_NOT_MIRROR.exe": 99, "Bang.Trickery.19.05.31.Savannah.Sixx.XXX.SD.MP4-KLEENEX.mp4": 293562963}
创建时间: 2019-06-11 01:09:42 大小:279.96 MB 文件数量:3 热度:11 最近下载:2023-03-29 13:20:01
    {"dde.19.05.31.sabina.rouge[N1C].mp4": 579147503}
创建时间: 2019-06-11 01:57:04 大小:552.32 MB 文件数量:1 热度:7 最近下载:2024-12-15 09:07:01
    {"Donate.url": 127, "Download 720p & 1080p HEVC porn [PornRips.to].url": 110, "DTFSluts.19.05.31.Abella.Danger.Passionate.Amateur.Sex.XXX.720p.HEVC.x265.PRT.mp4": 351263696}
创建时间: 2019-06-11 02:57:15 大小:334.99 MB 文件数量:3 热度:7 最近下载:2024-08-31 20:08:02
    ... .org.txt": 86, "rawattack.19.05.31.riley.nixon.episode.2.4k ... .mp4": 5037486519, "rawattack.19.05.31.riley.nixon.episode.2.4k ...
创建时间: 2019-06-11 04:30:16 大小:4.77 GB 文件数量:13 热度:44 最近下载:2025-05-24 01:24:02
    {"Donate.url": 127, "Download 720p & 1080p HEVC porn [PornRips.to].url": 110, "RoundAndBrown.19.05.31.Evi.Rei.Get.Caught.In.Her.Net.XXX.720p.HEVC.x265.PRT.mp4": 483513853}
创建时间: 2019-06-11 04:41:46 大小:461.11 MB 文件数量:3 热度:7 最近下载:2025-02-21 17:26:01
    {"RARBG.txt": 30, "RARBG_DO_NOT_MIRROR.exe": 99, "HardX.19.05.31.Lena.Paul.Busty.Super.Squirter.XXX.SD.MP4-KLEENEX.mp4": 322870111}
创建时间: 2019-06-11 04:53:54 大小:307.91 MB 文件数量:3 热度:11 最近下载:2024-09-25 14:05:02
    {"RARBG.txt": 30, "RARBG_DO_NOT_MIRROR.exe": 99, "karupsha.19.05.31.naughty.slumber.party.mp4": 1846570030, "karupsha.19.05.31.naughty.slumber.party.nfo": 1493}
创建时间: 2019-06-11 05:05:52 大小:1.72 GB 文件数量:4 热度:8 最近下载:2024-12-08 20:50:03
    {"RARBG.txt": 30, "RARBG_DO_NOT_MIRROR.exe": 99, "ATKGirlfriends.19.05.31.Vina.Sky.XXX.SD.MP4-KLEENEX.mp4": 211695884}
创建时间: 2019-06-11 06:17:50 大小:201.89 MB 文件数量:3 热度:4 最近下载:2022-04-13 05:46:15
    {"ccxxx.19.05.31.melanie.hicks.im.here.to.suck.some.cock.and.swallow.cum[N1C].mp4": 1635045019}
创建时间: 2019-06-11 07:36:25 大小:1.52 GB 文件数量:1 热度:13 最近下载:2025-05-27 15:33:02
    {"Provided by torrentgalaxy.org .nfo": 691, "AbbyWinters.19.05.31.Chelsea.K.And.Roland.Hardcore.XXX.720p.WEB.x264-GalaXXXy.mkv": 759137097}
创建时间: 2019-06-11 09:56:15 大小:723.97 MB 文件数量:2 热度:13 最近下载:2025-09-02 19:52:05
    ... .org.txt": 86, "tonightsgirlfriend.19.05.31.bree.daniels.4k.mp4": 11264851452 ... , "tonightsgirlfriend.19.05.31.bree.daniels.4k.nfo": 650}
创建时间: 2019-06-11 10:06:22 大小:10.58 GB 文件数量:13 热度:151 最近下载:2025-08-25 18:29:02